ENSG/SOG METAR and TAF weather

Enter ICAO airport designator
Station Type Date Time Source
ENSG METAR 2019/08/24 17:50 UTC NOAA

ENSG 241750Z VRB02KT 9999 FEW038 BKN044 13/13 Q1023 RMK WIND 3806FT 21019KT


Station Type Date Time Source
ENSG Decoded METAR 2019/08/24 17:50 UTC NOAA

Station name not available
Aug 24, 2019 - 01:50 PM EDT / 2019.08.24 1750 UTC
Wind: Variable at 2 MPH (2 KT):0
Visibility: greater than 7 mile(s):0
Sky conditions: mostly cloudy
Temperature: 55 F (13 C)
Dew Point: 55 F (13 C)
Relative Humidity: 100%
Pressure (altimeter): 30.21 in. Hg (1023 hPa)
ob: ENSG 241750Z VRB02KT 9999 FEW038 BKN044 13/13 Q1023 RMK WIND 3806FT 21019KT
cycle: 18

Station Type Date Time Source
ENSG TAF UTC NOAA

Error!

Example: see airport list